sensor_id;sensor_type;location;lat;lon;timestamp;pressure;altitude;pressure_sealevel;temperature;humidity
31092;BME280;17747;51.070;10.930;2022-09-09T00:00:48;100239.38;;;14.36;75.60
31092;BME280;17747;51.070;10.930;2022-09-09T00:01:54;100238.44;;;14.56;74.90
31092;BME280;17747;51.070;10.930;2022-09-09T00:03:02;100235.63;;;14.59;74.95
31092;BME280;17747;51.070;10.930;2022-09-09T00:04:11;100240.88;;;14.80;74.53
31092;BME280;17747;51.070;10.930;2022-09-09T00:05:18;100237.91;;;14.86;74.02
31092;BME280;17747;51.070;10.930;2022-09-09T00:06:25;100237.19;;;14.82;73.93
31092;BME280;17747;51.070;10.930;2022-09-09T00:07:37;100234.53;;;14.82;73.87
31092;BME280;17747;51.070;10.930;2022-09-09T00:08:48;100239.34;;;14.55;74.16
31092;BME280;17747;51.070;10.930;2022-09-09T00:10:00;100238.81;;;14.49;75.55
31092;BME280;17747;51.070;10.930;2022-09-09T00:11:10;100237.41;;;13.83;77.54
31092;BME280;17747;51.070;10.930;2022-09-09T00:12:15;100229.25;;;14.26;76.56
31092;BME280;17747;51.070;10.930;2022-09-09T00:13:21;100243.59;;;14.40;75.63
31092;BME280;17747;51.070;10.930;2022-09-09T00:14:33;100233.13;;;14.56;75.10
31092;BME280;17747;51.070;10.930;2022-09-09T00:15:41;100237.88;;;14.31;76.02
31092;BME280;17747;51.070;10.930;2022-09-09T00:16:54;100235.25;;;14.67;74.92
31092;BME280;17747;51.070;10.930;2022-09-09T00:18:01;100233.84;;;14.41;75.75
31092;BME280;17747;51.070;10.930;2022-09-09T00:19:07;100235.38;;;14.64;75.07
31092;BME280;17747;51.070;10.930;2022-09-09T00:20:19;100229.59;;;14.74;74.48
31092;BME280;17747;51.070;10.930;2022-09-09T00:21:23;100221.47;;;14.59;75.15
31092;BME280;17747;51.070;10.930;2022-09-09T00:22:28;100227.09;;;14.71;74.44
31092;BME280;17747;51.070;10.930;2022-09-09T00:23:34;100226.03;;;14.93;73.88
31092;BME280;17747;51.070;10.930;2022-09-09T00:24:42;100230.38;;;14.58;74.36
31092;BME280;17747;51.070;10.930;2022-09-09T00:25:50;100221.69;;;14.73;74.76
31092;BME280;17747;51.070;10.930;2022-09-09T00:26:59;100225.91;;;14.77;73.88
31092;BME280;17747;51.070;10.930;2022-09-09T00:28:01;100222.78;;;14.31;75.30
31092;BME280;17747;51.070;10.930;2022-09-09T00:29:05;100234.00;;;14.19;76.04
31092;BME280;17747;51.070;10.930;2022-09-09T00:30:16;100226.38;;;14.30;75.99
31092;BME280;17747;51.070;10.930;2022-09-09T00:31:23;100232.72;;;14.28;76.24
31092;BME280;17747;51.070;10.930;2022-09-09T00:32:29;100231.59;;;14.51;75.42
31092;BME280;17747;51.070;10.930;2022-09-09T00:33:31;100233.66;;;14.63;74.64
31092;BME280;17747;51.070;10.930;2022-09-09T00:34:32;100229.81;;;14.70;74.32
31092;BME280;17747;51.070;10.930;2022-09-09T00:35:37;100230.00;;;14.65;74.33
31092;BME280;17747;51.070;10.930;2022-09-09T00:36:39;100229.09;;;14.10;76.02
31092;BME280;17747;51.070;10.930;2022-09-09T00:37:40;100224.38;;;14.35;75.78
31092;BME280;17747;51.070;10.930;2022-09-09T00:38:46;100220.19;;;14.49;75.37
31092;BME280;17747;51.070;10.930;2022-09-09T00:39:50;100232.88;;;14.61;74.51
31092;BME280;17747;51.070;10.930;2022-09-09T00:40:55;100228.34;;;14.63;74.48
31092;BME280;17747;51.070;10.930;2022-09-09T00:42:11;100226.63;;;14.62;74.61
31092;BME280;17747;51.070;10.930;2022-09-09T00:43:25;100227.56;;;14.61;74.48
31092;BME280;17747;51.070;10.930;2022-09-09T00:44:32;100230.84;;;14.66;74.44
31092;BME280;17747;51.070;10.930;2022-09-09T00:45:53;100234.38;;;14.66;74.48
31092;BME280;17747;51.070;10.930;2022-09-09T00:47:28;100234.81;;;14.76;74.39
31092;BME280;17747;51.070;10.930;2022-09-09T00:48:41;100240.34;;;14.90;73.74
31092;BME280;17747;51.070;10.930;2022-09-09T00:49:53;100249.22;;;14.89;73.77
31092;BME280;17747;51.070;10.930;2022-09-09T00:51:02;100242.59;;;14.43;75.53
31092;BME280;17747;51.070;10.930;2022-09-09T00:52:17;100241.41;;;14.69;75.14
31092;BME280;17747;51.070;10.930;2022-09-09T00:53:31;100236.16;;;14.30;75.69
31092;BME280;17747;51.070;10.930;2022-09-09T00:54:44;100235.66;;;14.22;76.26
31092;BME280;17747;51.070;10.930;2022-09-09T00:55:50;100234.28;;;14.51;75.60
31092;BME280;17747;51.070;10.930;2022-09-09T00:57:02;100238.59;;;14.34;75.76
31092;BME280;17747;51.070;10.930;2022-09-09T00:58:06;100237.44;;;14.59;75.00
31092;BME280;17747;51.070;10.930;2022-09-09T00:59:22;100233.06;;;14.20;76.49
31092;BME280;17747;51.070;10.930;2022-09-09T01:00:27;100234.16;;;14.16;76.36
31092;BME280;17747;51.070;10.930;2022-09-09T01:01:29;100247.06;;;14.42;75.67
31092;BME280;17747;51.070;10.930;2022-09-09T01:02:34;100245.69;;;14.71;74.89
31092;BME280;17747;51.070;10.930;2022-09-09T01:03:45;100245.78;;;14.87;73.97
31092;BME280;17747;51.070;10.930;2022-09-09T01:04:48;100242.34;;;14.85;73.85
31092;BME280;17747;51.070;10.930;2022-09-09T01:05:55;100245.25;;;14.98;73.50
31092;BME280;17747;51.070;10.930;2022-09-09T01:07:08;100250.34;;;14.85;73.32
31092;BME280;17747;51.070;10.930;2022-09-09T01:08:25;100240.94;;;14.40;74.71
31092;BME280;17747;51.070;10.930;2022-09-09T01:09:41;100245.59;;;14.54;75.14
31092;BME280;17747;51.070;10.930;2022-09-09T01:10:49;100250.41;;;14.65;74.62
31092;BME280;17747;51.070;10.930;2022-09-09T01:11:57;100240.41;;;14.34;75.58
31092;BME280;17747;51.070;10.930;2022-09-09T01:13:02;100249.72;;;14.05;77.39
31092;BME280;17747;51.070;10.930;2022-09-09T01:14:13;100251.00;;;14.53;75.82
31092;BME280;17747;51.070;10.930;2022-09-09T01:15:22;100250.00;;;14.74;74.90
31092;BME280;17747;51.070;10.930;2022-09-09T01:16:26;100252.69;;;14.91;74.19
31092;BME280;17747;51.070;10.930;2022-09-09T01:17:31;100246.56;;;14.72;74.23
31092;BME280;17747;51.070;10.930;2022-09-09T01:18:36;100251.69;;;14.94;73.87
31092;BME280;17747;51.070;10.930;2022-09-09T01:19:45;100253.81;;;14.31;75.95
31092;BME280;17747;51.070;10.930;2022-09-09T01:20:57;100253.25;;;14.24;75.90
31092;BME280;17747;51.070;10.930;2022-09-09T01:22:03;100256.13;;;14.01;77.34
31092;BME280;17747;51.070;10.930;2022-09-09T01:23:20;100256.75;;;14.43;76.48
31092;BME280;17747;51.070;10.930;2022-09-09T01:24:27;100257.41;;;14.49;75.71
31092;BME280;17747;51.070;10.930;2022-09-09T01:26:13;100253.81;;;14.50;75.66
31092;BME280;17747;51.070;10.930;2022-09-09T01:27:17;100252.72;;;14.54;75.33
31092;BME280;17747;51.070;10.930;2022-09-09T01:28:22;100240.88;;;14.04;76.99
31092;BME280;17747;51.070;10.930;2022-09-09T01:29:26;100246.16;;;13.85;78.12
31092;BME280;17747;51.070;10.930;2022-09-09T01:30:28;100249.19;;;13.97;78.17
31092;BME280;17747;51.070;10.930;2022-09-09T01:31:31;100253.53;;;13.99;77.87
31092;BME280;17747;51.070;10.930;2022-09-09T01:32:42;100251.22;;;14.29;77.30
31092;BME280;17747;51.070;10.930;2022-09-09T01:33:43;100254.53;;;14.15;77.19
31092;BME280;17747;51.070;10.930;2022-09-09T01:34:45;100252.63;;;13.99;77.90
31092;BME280;17747;51.070;10.930;2022-09-09T01:35:50;100256.72;;;13.87;78.57
31092;BME280;17747;51.070;10.930;2022-09-09T01:36:58;100256.66;;;13.88;78.64
31092;BME280;17747;51.070;10.930;2022-09-09T01:37:59;100255.75;;;13.69;79.16
31092;BME280;17747;51.070;10.930;2022-09-09T01:39:01;100259.44;;;13.85;78.90
31092;BME280;17747;51.070;10.930;2022-09-09T01:40:02;100258.00;;;13.78;79.07
31092;BME280;17747;51.070;10.930;2022-09-09T01:41:05;100250.47;;;13.69;79.23
31092;BME280;17747;51.070;10.930;2022-09-09T01:42:08;100245.50;;;13.60;79.81
31092;BME280;17747;51.070;10.930;2022-09-09T01:43:10;100247.56;;;14.13;78.66
31092;BME280;17747;51.070;10.930;2022-09-09T01:44:11;100247.78;;;13.90;78.62
31092;BME280;17747;51.070;10.930;2022-09-09T01:45:12;100247.78;;;13.90;78.80
31092;BME280;17747;51.070;10.930;2022-09-09T01:46:13;100251.50;;;13.65;79.45
31092;BME280;17747;51.070;10.930;2022-09-09T01:47:15;100254.56;;;13.56;80.17
31092;BME280;17747;51.070;10.930;2022-09-09T01:48:17;100250.31;;;13.72;80.00
31092;BME280;17747;51.070;10.930;2022-09-09T01:49:20;100253.75;;;13.54;80.13
31092;BME280;17747;51.070;10.930;2022-09-09T01:50:20;100251.63;;;13.62;80.09
31092;BME280;17747;51.070;10.930;2022-09-09T01:51:22;100249.81;;;13.63;80.10
31092;BME280;17747;51.070;10.930;2022-09-09T01:52:23;100247.97;;;13.85;79.78
31092;BME280;17747;51.070;10.930;2022-09-09T01:53:25;100251.38;;;13.88;79.42
31092;BME280;17747;51.070;10.930;2022-09-09T01:54:28;100251.25;;;13.71;79.64
31092;BME280;17747;51.070;10.930;2022-09-09T01:55:33;100245.50;;;14.01;78.60
31092;BME280;17747;51.070;10.930;2022-09-09T01:56:47;100253.59;;;14.16;78.36
31092;BME280;17747;51.070;10.930;2022-09-09T01:57:56;100257.59;;;14.44;76.91
31092;BME280;17747;51.070;10.930;2022-09-09T01:59:09;100250.88;;;14.56;76.41
31092;BME280;17747;51.070;10.930;2022-09-09T02:00:14;100256.13;;;14.57;75.92
31092;BME280;17747;51.070;10.930;2022-09-09T02:01:21;100255.09;;;14.60;75.98
31092;BME280;17747;51.070;10.930;2022-09-09T02:02:29;100254.88;;;14.83;75.04
31092;BME280;17747;51.070;10.930;2022-09-09T02:03:32;100258.78;;;14.93;74.56
31092;BME280;17747;51.070;10.930;2022-09-09T02:04:38;100258.31;;;14.85;74.37
31092;BME280;17747;51.070;10.930;2022-09-09T02:05:41;100251.53;;;14.23;76.43
31092;BME280;17747;51.070;10.930;2022-09-09T02:06:47;100248.97;;;13.42;79.15
31092;BME280;17747;51.070;10.930;2022-09-09T02:07:49;100245.00;;;13.72;80.13
31092;BME280;17747;51.070;10.930;2022-09-09T02:08:55;100247.22;;;14.02;78.38
31092;BME280;17747;51.070;10.930;2022-09-09T02:10:01;100244.06;;;13.53;79.76
31092;BME280;17747;51.070;10.930;2022-09-09T02:11:06;100242.69;;;14.04;78.92
31092;BME280;17747;51.070;10.930;2022-09-09T02:12:13;100247.78;;;14.08;78.06
31092;BME280;17747;51.070;10.930;2022-09-09T02:13:17;100241.72;;;13.86;78.69
31092;BME280;17747;51.070;10.930;2022-09-09T02:14:23;100245.84;;;13.93;78.53
31092;BME280;17747;51.070;10.930;2022-09-09T02:15:30;100246.66;;;14.33;77.45
31092;BME280;17747;51.070;10.930;2022-09-09T02:16:37;100246.63;;;13.95;78.14
31092;BME280;17747;51.070;10.930;2022-09-09T02:17:40;100251.56;;;13.84;78.67
31092;BME280;17747;51.070;10.930;2022-09-09T02:18:47;100261.13;;;14.07;77.98
31092;BME280;17747;51.070;10.930;2022-09-09T02:19:53;100251.78;;;13.79;78.97
31092;BME280;17747;51.070;10.930;2022-09-09T02:20:57;100259.47;;;14.04;78.28
31092;BME280;17747;51.070;10.930;2022-09-09T02:22:00;100258.28;;;14.11;77.96
31092;BME280;17747;51.070;10.930;2022-09-09T02:23:01;100261.94;;;14.46;77.07
31092;BME280;17747;51.070;10.930;2022-09-09T02:24:05;100259.00;;;14.34;77.07
31092;BME280;17747;51.070;10.930;2022-09-09T02:25:11;100262.44;;;14.17;77.29
31092;BME280;17747;51.070;10.930;2022-09-09T02:26:14;100262.22;;;14.03;77.80
31092;BME280;17747;51.070;10.930;2022-09-09T02:27:22;100260.81;;;13.94;78.66
31092;BME280;17747;51.070;10.930;2022-09-09T02:28:26;100261.72;;;13.74;78.97
31092;BME280;17747;51.070;10.930;2022-09-09T02:29:31;100266.03;;;14.16;78.16
31092;BME280;17747;51.070;10.930;2022-09-09T02:30:34;100260.13;;;14.47;76.85
31092;BME280;17747;51.070;10.930;2022-09-09T02:31:36;100268.81;;;14.13;77.46
31092;BME280;17747;51.070;10.930;2022-09-09T02:32:40;100262.22;;;14.03;77.76
31092;BME280;17747;51.070;10.930;2022-09-09T02:33:46;100263.66;;;13.71;78.88
31092;BME280;17747;51.070;10.930;2022-09-09T02:34:53;100266.16;;;13.74;79.74
31092;BME280;17747;51.070;10.930;2022-09-09T02:35:56;100254.94;;;13.67;78.84
31092;BME280;17747;51.070;10.930;2022-09-09T02:37:03;100267.41;;;13.24;80.21
31092;BME280;17747;51.070;10.930;2022-09-09T02:38:09;100267.72;;;13.17;81.38
31092;BME280;17747;51.070;10.930;2022-09-09T02:39:12;100262.88;;;13.69;80.48
31092;BME280;17747;51.070;10.930;2022-09-09T02:40:14;100262.28;;;13.40;80.13
31092;BME280;17747;51.070;10.930;2022-09-09T02:41:16;100262.91;;;13.47;80.23
31092;BME280;17747;51.070;10.930;2022-09-09T02:42:17;100260.38;;;13.84;79.59
31092;BME280;17747;51.070;10.930;2022-09-09T02:43:20;100259.47;;;13.45;79.79
31092;BME280;17747;51.070;10.930;2022-09-09T02:44:22;100256.19;;;13.38;80.84
31092;BME280;17747;51.070;10.930;2022-09-09T02:45:25;100259.41;;;13.46;80.50
31092;BME280;17747;51.070;10.930;2022-09-09T02:46:37;100259.97;;;13.53;80.18
31092;BME280;17747;51.070;10.930;2022-09-09T02:47:47;100260.66;;;13.78;79.12
31092;BME280;17747;51.070;10.930;2022-09-09T02:48:56;100269.00;;;14.08;78.52
31092;BME280;17747;51.070;10.930;2022-09-09T02:50:09;100261.84;;;13.92;78.36
31092;BME280;17747;51.070;10.930;2022-09-09T02:51:16;100260.06;;;13.72;78.65
31092;BME280;17747;51.070;10.930;2022-09-09T02:52:21;100265.97;;;13.78;78.18
31092;BME280;17747;51.070;10.930;2022-09-09T02:53:33;100257.84;;;13.61;79.22
31092;BME280;17747;51.070;10.930;2022-09-09T02:54:38;100254.50;;;13.78;78.94
31092;BME280;17747;51.070;10.930;2022-09-09T02:55:41;100261.22;;;13.65;78.72
31092;BME280;17747;51.070;10.930;2022-09-09T02:56:51;100262.31;;;13.60;79.22
31092;BME280;17747;51.070;10.930;2022-09-09T02:57:53;100263.56;;;13.52;79.14
31092;BME280;17747;51.070;10.930;2022-09-09T02:58:58;100261.19;;;13.66;78.79
31092;BME280;17747;51.070;10.930;2022-09-09T02:59:59;100264.16;;;13.38;79.69
31092;BME280;17747;51.070;10.930;2022-09-09T03:01:01;100264.16;;;13.58;79.21
31092;BME280;17747;51.070;10.930;2022-09-09T03:02:03;100265.69;;;13.44;79.88
31092;BME280;17747;51.070;10.930;2022-09-09T03:03:06;100265.38;;;13.31;80.47
31092;BME280;17747;51.070;10.930;2022-09-09T03:04:07;100269.53;;;13.37;80.68
31092;BME280;17747;51.070;10.930;2022-09-09T03:05:08;100267.50;;;13.43;80.12
31092;BME280;17747;51.070;10.930;2022-09-09T03:06:09;100273.19;;;13.54;79.63
31092;BME280;17747;51.070;10.930;2022-09-09T03:07:12;100277.31;;;13.82;78.81
31092;BME280;17747;51.070;10.930;2022-09-09T03:08:12;100275.03;;;13.93;77.96
31092;BME280;17747;51.070;10.930;2022-09-09T03:09:14;100277.75;;;13.92;78.31
31092;BME280;17747;51.070;10.930;2022-09-09T03:10:15;100281.09;;;14.15;77.74
31092;BME280;17747;51.070;10.930;2022-09-09T03:11:16;100274.41;;;14.07;76.87
31092;BME280;17747;51.070;10.930;2022-09-09T03:12:17;100285.06;;;13.66;78.12
31092;BME280;17747;51.070;10.930;2022-09-09T03:13:18;100281.72;;;13.41;79.83
31092;BME280;17747;51.070;10.930;2022-09-09T03:14:21;100274.88;;;13.96;77.81
31092;BME280;17747;51.070;10.930;2022-09-09T03:15:24;100280.03;;;13.80;77.75
31092;BME280;17747;51.070;10.930;2022-09-09T03:16:30;100287.31;;;13.55;78.71
31092;BME280;17747;51.070;10.930;2022-09-09T03:17:33;100292.84;;;13.71;78.32
31092;BME280;17747;51.070;10.930;2022-09-09T03:18:34;100292.22;;;13.44;79.39
31092;BME280;17747;51.070;10.930;2022-09-09T03:19:35;100290.38;;;13.86;78.25
31092;BME280;17747;51.070;10.930;2022-09-09T03:20:37;100294.38;;;13.76;77.88
31092;BME280;17747;51.070;10.930;2022-09-09T03:21:39;100285.59;;;13.95;77.47
31092;BME280;17747;51.070;10.930;2022-09-09T03:22:39;100286.66;;;13.91;77.35
31092;BME280;17747;51.070;10.930;2022-09-09T03:23:41;100289.16;;;14.33;76.09
31092;BME280;17747;51.070;10.930;2022-09-09T03:24:41;100288.25;;;13.74;77.52
31092;BME280;17747;51.070;10.930;2022-09-09T03:25:46;100286.00;;;14.25;76.60
31092;BME280;17747;51.070;10.930;2022-09-09T03:26:47;100285.50;;;14.35;75.81
31092;BME280;17747;51.070;10.930;2022-09-09T03:27:50;100287.53;;;13.71;77.37
31092;BME280;17747;51.070;10.930;2022-09-09T03:28:54;100283.34;;;13.45;78.62
31092;BME280;17747;51.070;10.930;2022-09-09T03:29:57;100286.63;;;13.29;79.06
31092;BME280;17747;51.070;10.930;2022-09-09T03:30:59;100279.81;;;13.44;78.93
31092;BME280;17747;51.070;10.930;2022-09-09T03:32:00;100287.72;;;13.66;78.27
31092;BME280;17747;51.070;10.930;2022-09-09T03:33:01;100289.44;;;13.67;77.81
31092;BME280;17747;51.070;10.930;2022-09-09T03:34:03;100284.78;;;13.52;78.46
31092;BME280;17747;51.070;10.930;2022-09-09T03:35:04;100289.16;;;13.53;78.32
31092;BME280;17747;51.070;10.930;2022-09-09T03:36:06;100283.19;;;13.48;78.78
31092;BME280;17747;51.070;10.930;2022-09-09T03:37:09;100283.47;;;13.82;77.30
31092;BME280;17747;51.070;10.930;2022-09-09T03:38:10;100277.09;;;13.46;77.67
31092;BME280;17747;51.070;10.930;2022-09-09T03:39:12;100273.25;;;13.33;79.09
31092;BME280;17747;51.070;10.930;2022-09-09T03:40:12;100267.78;;;13.97;77.11
31092;BME280;17747;51.070;10.930;2022-09-09T03:41:14;100263.97;;;13.83;76.02
31092;BME280;17747;51.070;10.930;2022-09-09T03:42:15;100267.69;;;13.39;78.32
31092;BME280;17747;51.070;10.930;2022-09-09T03:43:19;100275.63;;;14.00;76.44
31092;BME280;17747;51.070;10.930;2022-09-09T03:44:21;100278.94;;;13.64;76.37
31092;BME280;17747;51.070;10.930;2022-09-09T03:45:24;100277.97;;;13.46;77.21
31092;BME280;17747;51.070;10.930;2022-09-09T03:46:25;100282.13;;;13.52;77.44
31092;BME280;17747;51.070;10.930;2022-09-09T03:47:27;100283.59;;;13.59;77.20
31092;BME280;17747;51.070;10.930;2022-09-09T03:48:27;100280.31;;;13.54;77.41
31092;BME280;17747;51.070;10.930;2022-09-09T03:49:29;100281.13;;;13.76;76.92
31092;BME280;17747;51.070;10.930;2022-09-09T03:50:30;100281.59;;;13.64;77.12
31092;BME280;17747;51.070;10.930;2022-09-09T03:51:32;100283.28;;;13.67;77.05
31092;BME280;17747;51.070;10.930;2022-09-09T03:52:36;100281.47;;;13.47;77.75
31092;BME280;17747;51.070;10.930;2022-09-09T03:53:38;100281.72;;;13.61;77.74
31092;BME280;17747;51.070;10.930;2022-09-09T03:54:38;100280.81;;;14.03;76.14
31092;BME280;17747;51.070;10.930;2022-09-09T03:55:44;100273.00;;;13.79;76.75
31092;BME280;17747;51.070;10.930;2022-09-09T03:56:45;100277.47;;;13.79;76.43
31092;BME280;17747;51.070;10.930;2022-09-09T03:57:46;100279.28;;;13.56;76.93
31092;BME280;17747;51.070;10.930;2022-09-09T03:58:47;100272.34;;;13.54;77.39
31092;BME280;17747;51.070;10.930;2022-09-09T03:59:48;100278.69;;;13.50;78.01
31092;BME280;17747;51.070;10.930;2022-09-09T04:00:57;100270.59;;;13.94;76.73
31092;BME280;17747;51.070;10.930;2022-09-09T04:01:59;100278.88;;;13.86;76.30
31092;BME280;17747;51.070;10.930;2022-09-09T04:03:00;100277.78;;;13.71;76.72
31092;BME280;17747;51.070;10.930;2022-09-09T04:04:02;100283.16;;;13.70;76.75
31092;BME280;17747;51.070;10.930;2022-09-09T04:05:02;100286.78;;;13.67;76.84
31092;BME280;17747;51.070;10.930;2022-09-09T04:06:05;100290.22;;;13.49;77.43
31092;BME280;17747;51.070;10.930;2022-09-09T04:07:07;100281.53;;;13.25;78.06
31092;BME280;17747;51.070;10.930;2022-09-09T04:08:09;100288.22;;;13.13;78.90
31092;BME280;17747;51.070;10.930;2022-09-09T04:09:09;100289.94;;;13.14;79.18
31092;BME280;17747;51.070;10.930;2022-09-09T04:10:11;100285.34;;;13.18;79.06
31092;BME280;17747;51.070;10.930;2022-09-09T04:11:11;100295.03;;;13.19;79.19
31092;BME280;17747;51.070;10.930;2022-09-09T04:12:13;100292.81;;;13.08;79.28
31092;BME280;17747;51.070;10.930;2022-09-09T04:13:14;100301.47;;;13.13;79.58
31092;BME280;17747;51.070;10.930;2022-09-09T04:14:16;100299.81;;;13.11;79.25
31092;BME280;17747;51.070;10.930;2022-09-09T04:15:17;100295.91;;;13.19;79.15
31092;BME280;17747;51.070;10.930;2022-09-09T04:16:20;100292.38;;;13.19;79.23
31092;BME280;17747;51.070;10.930;2022-09-09T04:17:21;100289.31;;;13.50;78.31
31092;BME280;17747;51.070;10.930;2022-09-09T04:18:23;100289.56;;;13.23;78.26
31092;BME280;17747;51.070;10.930;2022-09-09T04:19:23;100296.81;;;13.18;79.02
31092;BME280;17747;51.070;10.930;2022-09-09T04:20:25;100289.97;;;13.55;77.83
31092;BME280;17747;51.070;10.930;2022-09-09T04:21:26;100294.97;;;13.42;78.08
31092;BME280;17747;51.070;10.930;2022-09-09T04:22:27;100290.91;;;13.34;77.99
31092;BME280;17747;51.070;10.930;2022-09-09T04:23:28;100304.44;;;13.48;77.61
31092;BME280;17747;51.070;10.930;2022-09-09T04:24:29;100299.78;;;13.33;77.90
31092;BME280;17747;51.070;10.930;2022-09-09T04:25:30;100301.59;;;13.10;78.43
31092;BME280;17747;51.070;10.930;2022-09-09T04:26:32;100300.00;;;13.06;78.99
31092;BME280;17747;51.070;10.930;2022-09-09T04:27:33;100301.59;;;13.10;78.91
31092;BME280;17747;51.070;10.930;2022-09-09T04:28:36;100311.38;;;13.08;78.96
31092;BME280;17747;51.070;10.930;2022-09-09T04:29:36;100318.91;;;13.19;78.34
31092;BME280;17747;51.070;10.930;2022-09-09T04:30:38;100316.31;;;13.17;78.43
31092;BME280;17747;51.070;10.930;2022-09-09T04:31:41;100313.38;;;13.03;78.73
31092;BME280;17747;51.070;10.930;2022-09-09T04:32:43;100319.22;;;13.33;77.88
31092;BME280;17747;51.070;10.930;2022-09-09T04:33:43;100309.31;;;12.94;79.20
31092;BME280;17747;51.070;10.930;2022-09-09T04:34:45;100317.88;;;13.01;78.88
31092;BME280;17747;51.070;10.930;2022-09-09T04:35:49;100315.38;;;13.18;78.27
31092;BME280;17747;51.070;10.930;2022-09-09T04:36:51;100312.69;;;13.20;78.25
31092;BME280;17747;51.070;10.930;2022-09-09T04:37:52;100309.06;;;13.22;78.23
31092;BME280;17747;51.070;10.930;2022-09-09T04:38:53;100303.44;;;13.50;77.12
31092;BME280;17747;51.070;10.930;2022-09-09T04:39:54;100310.50;;;13.29;77.50
31092;BME280;17747;51.070;10.930;2022-09-09T04:40:56;100314.63;;;13.79;76.49
31092;BME280;17747;51.070;10.930;2022-09-09T04:41:57;100301.31;;;13.58;76.13
31092;BME280;17747;51.070;10.930;2022-09-09T04:42:58;100309.13;;;13.41;76.84
31092;BME280;17747;51.070;10.930;2022-09-09T04:43:59;100309.00;;;13.44;77.25
31092;BME280;17747;51.070;10.930;2022-09-09T04:45:02;100309.25;;;13.38;77.21
31092;BME280;17747;51.070;10.930;2022-09-09T04:46:03;100307.81;;;13.51;76.76
31092;BME280;17747;51.070;10.930;2022-09-09T04:47:06;100306.81;;;13.34;77.42
31092;BME280;17747;51.070;10.930;2022-09-09T04:48:08;100306.50;;;13.19;77.98
31092;BME280;17747;51.070;10.930;2022-09-09T04:49:09;100309.13;;;13.41;76.91
31092;BME280;17747;51.070;10.930;2022-09-09T04:50:11;100310.13;;;13.39;77.00
31092;BME280;17747;51.070;10.930;2022-09-09T04:51:13;100308.69;;;13.32;77.23
31092;BME280;17747;51.070;10.930;2022-09-09T04:52:15;100319.53;;;13.25;77.82
31092;BME280;17747;51.070;10.930;2022-09-09T04:53:17;100315.66;;;13.12;77.83
31092;BME280;17747;51.070;10.930;2022-09-09T04:54:18;100321.25;;;13.05;78.15
31092;BME280;17747;51.070;10.930;2022-09-09T04:55:19;100314.97;;;13.07;78.19
31092;BME280;17747;51.070;10.930;2022-09-09T04:56:20;100314.97;;;13.07;77.90
31092;BME280;17747;51.070;10.930;2022-09-09T04:57:21;100314.56;;;13.38;76.82
31092;BME280;17747;51.070;10.930;2022-09-09T04:58:22;100317.16;;;13.40;76.82
31092;BME280;17747;51.070;10.930;2022-09-09T04:59:23;100318.94;;;13.39;76.59
31092;BME280;17747;51.070;10.930;2022-09-09T05:00:25;100315.75;;;13.51;76.03
31092;BME280;17747;51.070;10.930;2022-09-09T05:01:25;100326.75;;;13.22;76.70
31092;BME280;17747;51.070;10.930;2022-09-09T05:02:28;100327.84;;;13.16;77.24
31092;BME280;17747;51.070;10.930;2022-09-09T05:03:30;100331.91;;;13.47;76.52
31092;BME280;17747;51.070;10.930;2022-09-09T05:04:32;100326.59;;;13.67;75.88
31092;BME280;17747;51.070;10.930;2022-09-09T05:05:33;100336.41;;;13.45;76.02
31092;BME280;17747;51.070;10.930;2022-09-09T05:06:35;100328.03;;;13.34;76.81
31092;BME280;17747;51.070;10.930;2022-09-09T05:07:36;100324.03;;;12.80;78.73
31092;BME280;17747;51.070;10.930;2022-09-09T05:08:38;100329.56;;;13.17;78.11
31092;BME280;17747;51.070;10.930;2022-09-09T05:09:39;100324.59;;;13.32;77.22
31092;BME280;17747;51.070;10.930;2022-09-09T05:10:41;100329.75;;;13.35;76.60
31092;BME280;17747;51.070;10.930;2022-09-09T05:11:42;100326.16;;;13.78;75.62
31092;BME280;17747;51.070;10.930;2022-09-09T05:12:52;100323.16;;;13.45;76.13
31092;BME280;17747;51.070;10.930;2022-09-09T05:13:54;100324.91;;;13.65;75.60
31092;BME280;17747;51.070;10.930;2022-09-09T05:14:56;100325.81;;;13.65;75.69
31092;BME280;17747;51.070;10.930;2022-09-09T05:15:57;100319.34;;;13.50;75.73
31092;BME280;17747;51.070;10.930;2022-09-09T05:16:58;100319.81;;;12.97;77.59
31092;BME280;17747;51.070;10.930;2022-09-09T05:18:01;100324.25;;;12.97;78.35
31092;BME280;17747;51.070;10.930;2022-09-09T05:19:03;100321.97;;;13.10;77.76
31092;BME280;17747;51.070;10.930;2022-09-09T05:20:04;100327.25;;;13.32;77.48
31092;BME280;17747;51.070;10.930;2022-09-09T05:21:06;100313.56;;;13.41;76.86
31092;BME280;17747;51.070;10.930;2022-09-09T05:22:07;100320.16;;;13.10;77.34
31092;BME280;17747;51.070;10.930;2022-09-09T05:23:08;100320.91;;;12.92;78.18
31092;BME280;17747;51.070;10.930;2022-09-09T05:24:10;100329.22;;;13.26;77.64
31092;BME280;17747;51.070;10.930;2022-09-09T05:25:12;100327.69;;;12.99;78.26
31092;BME280;17747;51.070;10.930;2022-09-09T05:26:14;100331.63;;;13.33;77.38
31092;BME280;17747;51.070;10.930;2022-09-09T05:27:17;100324.78;;;13.05;77.92
31092;BME280;17747;51.070;10.930;2022-09-09T05:28:20;100319.69;;;13.00;78.38
31092;BME280;17747;51.070;10.930;2022-09-09T05:29:21;100324.13;;;13.00;78.29
31092;BME280;17747;51.070;10.930;2022-09-09T05:30:23;100329.56;;;13.17;77.71
31092;BME280;17747;51.070;10.930;2022-09-09T05:31:25;100328.91;;;13.12;78.10
31092;BME280;17747;51.070;10.930;2022-09-09T05:32:29;100334.72;;;13.00;77.91